createdAt,value
2022-11-08T00:02:14.094Z,1.90
2022-11-08T00:04:40.913Z,2.40
2022-11-08T00:07:26.437Z,1.88
2022-11-08T00:10:11.981Z,2.47
2022-11-08T00:12:57.144Z,2.65
2022-11-08T00:15:24.043Z,2.20
2022-11-08T00:17:50.734Z,2.70
2022-11-08T00:20:17.529Z,2.35
2022-11-08T00:22:44.199Z,2.33
2022-11-08T00:25:11.219Z,3.28
2022-11-08T00:27:37.957Z,2.15
2022-11-08T00:30:05.087Z,2.90
2022-11-08T00:32:31.781Z,2.22
2022-11-08T00:34:58.522Z,2.20
2022-11-08T00:37:26.481Z,2.20
2022-11-08T00:39:53.217Z,2.47
2022-11-08T00:42:19.902Z,2.60
2022-11-08T00:44:46.623Z,2.00
2022-11-08T00:47:13.252Z,2.17
2022-11-08T00:49:39.875Z,1.90
2022-11-08T00:52:06.542Z,1.80
2022-11-08T00:54:33.188Z,2.10
2022-11-08T00:56:59.963Z,2.22
2022-11-08T00:59:26.602Z,1.92
2022-11-08T01:01:53.355Z,2.47
2022-11-08T01:04:20.683Z,1.88
2022-11-08T01:06:47.832Z,2.40
2022-11-08T01:09:15.727Z,2.45
2022-11-08T01:11:46.408Z,1.98
2022-11-08T01:14:14.629Z,2.03
2022-11-08T01:16:42.122Z,2.78
2022-11-08T01:19:08.897Z,1.95
2022-11-08T01:21:35.680Z,2.70
2022-11-08T01:24:02.403Z,2.13
2022-11-08T01:26:29.980Z,2.38
2022-11-08T01:28:58.197Z,2.00
2022-11-08T01:31:30.802Z,2.42
2022-11-08T01:33:59.019Z,2.33
2022-11-08T01:36:28.012Z,2.30
2022-11-08T01:38:55.852Z,2.38
2022-11-08T01:41:24.977Z,2.10
2022-11-08T01:43:53.696Z,1.92
2022-11-08T01:46:31.097Z,2.35
2022-11-08T01:49:23.271Z,2.38
2022-11-08T01:52:27.561Z,2.20
2022-11-08T01:55:01.152Z,2.45
2022-11-08T01:58:02.004Z,2.40
2022-11-08T02:00:28.882Z,2.50
2022-11-08T02:03:01.357Z,2.85
2022-11-08T02:08:02.034Z,1.90
2022-11-08T02:10:38.056Z,2.30
2022-11-08T02:13:14.302Z,1.95
2022-11-08T02:15:41.743Z,2.30
2022-11-08T02:18:08.693Z,2.17
2022-11-08T02:20:35.570Z,2.13
2022-11-08T02:23:17.392Z,2.53
2022-11-08T02:25:44.091Z,2.50
2022-11-08T02:28:10.858Z,2.33
2022-11-08T02:30:38.804Z,1.98
2022-11-08T02:33:19.525Z,2.40
2022-11-08T02:35:50.978Z,2.50
2022-11-08T02:38:19.031Z,2.42
2022-11-08T02:40:51.023Z,2.30
2022-11-08T02:43:18.087Z,2.72
2022-11-08T02:45:45.248Z,3.05
2022-11-08T02:48:12.816Z,2.25
2022-11-08T02:50:40.134Z,2.40
2022-11-08T02:53:07.324Z,2.50
2022-11-08T02:55:35.061Z,2.55
2022-11-08T02:58:03.011Z,2.22
2022-11-08T03:00:29.726Z,2.20
2022-11-08T03:02:57.550Z,1.88
2022-11-08T03:05:25.659Z,2.45
2022-11-08T03:07:53.473Z,2.75
2022-11-08T03:10:20.535Z,2.35
2022-11-08T03:12:47.201Z,1.98
2022-11-08T03:15:14.475Z,2.00
2022-11-08T03:17:41.133Z,2.10
2022-11-08T03:20:08.250Z,1.90
2022-11-08T03:22:34.928Z,2.33
2022-11-08T03:25:01.554Z,2.28
2022-11-08T03:27:28.713Z,2.10
2022-11-08T03:29:55.395Z,1.67
2022-11-08T03:32:22.726Z,2.13
2022-11-08T03:34:49.423Z,2.20
2022-11-08T03:37:16.106Z,2.00
2022-11-08T03:39:42.817Z,2.22
2022-11-08T03:42:09.489Z,2.08
2022-11-08T03:44:36.150Z,1.98
2022-11-08T03:47:02.836Z,1.67
2022-11-08T03:49:29.520Z,2.22
2022-11-08T03:51:56.231Z,1.83
2022-11-08T03:54:22.932Z,2.10
2022-11-08T03:56:49.940Z,2.08
2022-11-08T03:59:16.607Z,2.00
2022-11-08T04:01:43.596Z,1.95
2022-11-08T04:04:13.320Z,1.95
2022-11-08T04:06:40.075Z,2.42
2022-11-08T04:09:06.746Z,1.58
2022-11-08T04:11:52.041Z,2.10
2022-11-08T04:14:37.505Z,2.00
2022-11-08T04:17:04.217Z,2.08
2022-11-08T04:19:49.314Z,2.40
2022-11-08T04:24:42.634Z,1.70
2022-11-08T04:27:09.403Z,2.00
2022-11-08T04:29:36.093Z,1.50
2022-11-08T04:32:02.842Z,1.40
2022-11-08T04:34:30.068Z,1.52
2022-11-08T04:36:56.701Z,2.42
2022-11-08T04:39:23.338Z,1.60
2022-11-08T04:41:49.994Z,1.65
2022-11-08T04:44:18.347Z,1.67
2022-11-08T04:46:45.002Z,1.83
2022-11-08T04:49:11.723Z,1.85
2022-11-08T04:51:38.460Z,1.88
2022-11-08T04:54:07.650Z,1.75
2022-11-08T04:56:34.368Z,1.63
2022-11-08T04:59:01.261Z,1.92
2022-11-08T05:01:30.930Z,1.65
2022-11-08T05:03:58.248Z,2.10
2022-11-08T05:06:28.408Z,1.70
2022-11-08T05:08:56.421Z,1.65
2022-11-08T05:11:25.547Z,1.60
2022-11-08T05:13:52.798Z,1.70
2022-11-08T05:16:22.317Z,1.35
2022-11-08T05:18:49.523Z,1.60
2022-11-08T05:21:37.998Z,1.70
2022-11-08T05:24:06.822Z,1.88
2022-11-08T05:26:35.237Z,1.65
2022-11-08T05:29:02.357Z,1.60
2022-11-08T05:31:29.012Z,1.63
2022-11-08T05:33:55.752Z,1.70
2022-11-08T05:36:22.449Z,2.00
2022-11-08T05:38:49.175Z,2.05
2022-11-08T05:41:19.218Z,1.80
2022-11-08T05:43:47.694Z,2.53
2022-11-08T05:46:15.174Z,2.03
2022-11-08T05:48:43.049Z,2.67
2022-11-08T05:51:12.067Z,2.45
2022-11-08T05:53:40.140Z,2.72
2022-11-08T05:56:07.753Z,2.25
2022-11-08T05:58:35.443Z,2.95
2022-11-08T06:01:16.244Z,2.72
2022-11-08T06:03:43.351Z,2.90
2022-11-08T06:06:14.942Z,2.90
2022-11-08T06:08:44.975Z,2.90
2022-11-08T06:11:16.873Z,2.70
2022-11-08T06:13:43.617Z,3.03
2022-11-08T06:16:13.539Z,2.95
2022-11-08T06:18:41.415Z,2.60
2022-11-08T06:21:12.198Z,2.90
2022-11-08T06:23:39.252Z,2.60
2022-11-08T06:26:05.966Z,2.90
2022-11-08T06:28:33.299Z,2.83
2022-11-08T06:31:01.401Z,2.70
2022-11-08T06:33:28.904Z,3.00
2022-11-08T06:35:55.619Z,2.60
2022-11-08T06:38:22.525Z,2.70
2022-11-08T06:40:49.212Z,3.03
2022-11-08T06:43:19.588Z,2.75
2022-11-08T06:45:46.996Z,3.00
2022-11-08T06:48:13.729Z,3.33
2022-11-08T06:50:42.570Z,3.10
2022-11-08T06:53:12.464Z,3.85
2022-11-08T06:55:39.171Z,2.80
2022-11-08T06:58:05.993Z,3.10
2022-11-08T07:00:32.817Z,3.20
2022-11-08T07:03:02.367Z,3.28
2022-11-08T07:05:31.350Z,3.30
2022-11-08T07:07:59.326Z,3.30
2022-11-08T07:10:28.142Z,3.10
2022-11-08T07:13:03.467Z,3.60
2022-11-08T07:15:31.278Z,3.95
2022-11-08T07:18:11.636Z,2.80
2022-11-08T07:20:39.414Z,3.40
2022-11-08T07:23:06.649Z,3.55
2022-11-08T07:25:34.127Z,3.25
2022-11-08T07:28:03.657Z,3.03
2022-11-08T07:30:31.074Z,3.20
2022-11-08T07:32:58.295Z,3.05
2022-11-08T07:35:27.605Z,3.13
2022-11-08T07:37:54.835Z,3.30
2022-11-08T07:40:21.486Z,4.00
2022-11-08T07:45:35.424Z,2.92
2022-11-08T07:48:09.554Z,3.10
2022-11-08T07:50:38.458Z,3.63
2022-11-08T07:53:05.127Z,3.30
2022-11-08T07:55:31.871Z,4.22
2022-11-08T07:58:02.521Z,3.30
2022-11-08T08:00:36.193Z,3.17
2022-11-08T08:03:04.040Z,3.08
2022-11-08T08:05:35.157Z,2.70
2022-11-08T08:08:02.458Z,3.10
2022-11-08T08:10:29.868Z,2.90
2022-11-08T08:12:57.179Z,2.88
2022-11-08T08:15:24.461Z,2.90
2022-11-08T08:17:51.141Z,3.30
2022-11-08T08:20:18.030Z,2.88
2022-11-08T08:22:46.300Z,2.95
2022-11-08T08:25:13.758Z,2.53
2022-11-08T08:27:40.578Z,2.70
2022-11-08T08:30:07.832Z,3.15
2022-11-08T08:32:34.696Z,2.20
2022-11-08T08:35:01.368Z,1.98
2022-11-08T08:37:28.306Z,1.85
2022-11-08T08:39:54.937Z,1.40
2022-11-08T08:42:21.570Z,2.00
2022-11-08T08:44:48.311Z,1.38
2022-11-08T08:47:14.962Z,1.83
2022-11-08T08:49:41.591Z,1.45
2022-11-08T08:52:08.389Z,1.83
2022-11-08T08:54:35.005Z,1.60
2022-11-08T08:57:01.702Z,1.42
2022-11-08T09:02:16.986Z,1.23
2022-11-08T09:04:43.609Z,1.52
2022-11-08T09:07:10.284Z,1.50
2022-11-08T09:09:37.495Z,1.25
2022-11-08T09:12:04.356Z,1.60
2022-11-08T09:14:30.996Z,0.90
2022-11-08T09:16:58.011Z,1.02
2022-11-08T09:19:24.690Z,1.02
2022-11-08T09:21:51.430Z,1.02
2022-11-08T09:24:18.275Z,0.80
2022-11-08T09:26:45.054Z,0.77
2022-11-08T09:29:11.718Z,0.88
2022-11-08T09:31:38.410Z,0.90
2022-11-08T09:34:05.076Z,1.00
2022-11-08T09:36:32.657Z,0.90
2022-11-08T09:38:59.331Z,1.00
2022-11-08T09:41:28.786Z,0.93
2022-11-08T09:44:30.519Z,0.80
2022-11-08T09:47:02.468Z,0.80
2022-11-08T09:49:37.791Z,1.00
2022-11-08T09:52:05.734Z,0.88
2022-11-08T09:54:41.807Z,0.90
2022-11-08T09:57:20.575Z,1.00
2022-11-08T09:59:52.681Z,1.10
2022-11-08T10:02:22.729Z,0.93
2022-11-08T10:04:55.179Z,1.10
2022-11-08T10:07:48.258Z,0.90
2022-11-08T10:10:36.011Z,1.08
2022-11-08T10:13:18.072Z,1.85
2022-11-08T10:16:26.195Z,0.90
2022-11-08T10:19:08.884Z,0.88
2022-11-08T10:21:47.426Z,0.63
2022-11-08T10:24:26.658Z,0.80
2022-11-08T10:26:57.541Z,1.10
2022-11-08T10:29:31.355Z,1.10
2022-11-08T10:32:20.316Z,1.05
2022-11-08T10:35:05.968Z,1.00
2022-11-08T10:37:33.536Z,0.90
2022-11-08T10:40:06.230Z,1.05
2022-11-08T10:42:43.979Z,0.90
2022-11-08T10:45:13.382Z,0.68
2022-11-08T10:47:41.118Z,0.70
2022-11-08T10:50:22.288Z,0.93
2022-11-08T10:53:00.098Z,0.88
2022-11-08T10:55:27.940Z,0.75
2022-11-08T10:57:54.840Z,0.85
2022-11-08T11:00:21.912Z,0.80
2022-11-08T11:02:57.545Z,0.88
2022-11-08T11:05:36.891Z,0.90
2022-11-08T11:08:15.621Z,1.08
2022-11-08T11:10:47.705Z,0.95
2022-11-08T11:16:03.258Z,0.75
2022-11-08T11:18:38.929Z,1.00
2022-11-08T11:21:14.040Z,0.73
2022-11-08T11:23:42.603Z,1.00
2022-11-08T11:26:32.918Z,0.80
2022-11-08T11:29:02.631Z,0.60
2022-11-08T11:31:29.698Z,1.00
2022-11-08T11:33:56.859Z,0.75
2022-11-08T11:36:27.477Z,0.52
2022-11-08T11:39:22.276Z,0.80
2022-11-08T11:42:45.329Z,0.70
2022-11-08T11:45:36.356Z,0.73
2022-11-08T11:48:11.555Z,0.57
2022-11-08T11:50:40.675Z,0.90
2022-11-08T11:53:38.821Z,0.73
2022-11-08T11:56:26.334Z,0.88
2022-11-08T11:59:37.396Z,0.60
2022-11-08T12:02:45.593Z,0.60
2022-11-08T12:05:39.438Z,0.70
2022-11-08T12:08:23.833Z,1.02
2022-11-08T12:11:03.838Z,0.80
2022-11-08T12:13:42.370Z,0.93
2022-11-08T12:18:48.083Z,0.80
2022-11-08T12:21:56.196Z,0.75
2022-11-08T12:24:46.050Z,0.77
2022-11-08T12:27:12.683Z,0.90
2022-11-08T12:30:08.746Z,0.80
2022-11-08T12:32:48.027Z,0.82
2022-11-08T12:35:19.724Z,0.63
2022-11-08T12:38:19.392Z,0.70
2022-11-08T12:41:03.721Z,0.88
2022-11-08T12:43:42.230Z,0.80
2022-11-08T12:49:02.324Z,0.45
2022-11-08T12:51:42.758Z,0.68
2022-11-08T12:54:24.406Z,0.70
2022-11-08T12:56:54.786Z,1.20
2022-11-08T12:59:37.096Z,0.60
2022-11-08T13:02:05.857Z,0.93
2022-11-08T13:04:38.646Z,0.63
2022-11-08T13:07:20.589Z,0.90
2022-11-08T13:09:57.216Z,0.60
2022-11-08T13:13:07.399Z,1.00
2022-11-08T13:15:34.073Z,0.93
2022-11-08T13:18:06.239Z,0.77
2022-11-08T13:23:25.242Z,0.80
2022-11-08T13:25:52.811Z,0.80
2022-11-08T13:28:38.658Z,0.68
2022-11-08T13:31:27.760Z,0.60
2022-11-08T13:34:22.479Z,0.60
2022-11-08T13:37:13.896Z,1.08
2022-11-08T13:39:47.782Z,0.70
2022-11-08T13:42:17.394Z,1.00
2022-11-08T13:44:56.358Z,1.00
2022-11-08T13:47:34.890Z,0.80
2022-11-08T13:53:08.306Z,0.70
2022-11-08T13:55:44.503Z,1.13
2022-11-08T13:58:38.975Z,0.90
2022-11-08T14:01:11.527Z,0.60
2022-11-08T14:03:47.622Z,0.65
2022-11-08T14:06:35.741Z,0.80
2022-11-08T14:09:35.636Z,0.80
2022-11-08T14:12:26.186Z,0.75
2022-11-08T14:15:07.528Z,0.70
2022-11-08T14:17:47.922Z,0.95
2022-11-08T14:20:27.504Z,1.00
2022-11-08T14:22:54.724Z,0.80
2022-11-08T14:25:34.937Z,0.90
2022-11-08T14:28:02.050Z,0.80
2022-11-08T14:30:28.772Z,1.00
2022-11-08T14:33:16.955Z,1.02
2022-11-08T14:35:51.834Z,1.20
2022-11-08T14:38:18.637Z,0.95
2022-11-08T14:40:54.781Z,1.33
2022-11-08T14:43:22.784Z,0.90
2022-11-08T14:45:50.490Z,1.15
2022-11-08T14:48:28.949Z,0.88
2022-11-08T14:51:00.324Z,0.90
2022-11-08T14:53:31.847Z,0.93
2022-11-08T14:56:19.884Z,0.93
2022-11-08T14:58:48.171Z,1.00
2022-11-08T15:01:16.970Z,0.82
2022-11-08T15:04:17.074Z,1.10
2022-11-08T15:06:48.532Z,1.00
2022-11-08T15:09:26.543Z,0.85
2022-11-08T15:11:57.139Z,0.75
2022-11-08T15:14:26.986Z,0.88
2022-11-08T15:16:58.663Z,0.90
2022-11-08T15:19:37.870Z,0.90
2022-11-08T15:22:24.785Z,0.70
2022-11-08T15:25:22.016Z,1.20
2022-11-08T15:27:57.167Z,0.98
2022-11-08T15:30:29.722Z,0.82
2022-11-08T15:32:57.046Z,0.90
2022-11-08T15:35:36.675Z,0.95
2022-11-08T15:38:25.392Z,0.80
2022-11-08T15:40:54.778Z,0.85
2022-11-08T15:43:36.065Z,1.65
2022-11-08T15:46:04.595Z,1.00
2022-11-08T15:48:32.051Z,0.93
2022-11-08T15:50:59.211Z,1.02
2022-11-08T15:53:27.345Z,1.15
2022-11-08T15:55:58.558Z,0.90
2022-11-08T15:58:31.296Z,1.35
2022-11-08T16:00:59.850Z,1.00
2022-11-08T16:03:26.653Z,0.80
2022-11-08T16:05:53.606Z,1.00
2022-11-08T16:08:21.164Z,1.27
2022-11-08T16:10:53.609Z,1.00
2022-11-08T16:13:31.187Z,0.75
2022-11-08T16:15:59.390Z,1.25
2022-11-08T16:18:27.129Z,0.68
2022-11-08T16:20:53.879Z,0.98
2022-11-08T16:23:20.573Z,0.90
2022-11-08T16:25:52.592Z,0.90
2022-11-08T16:28:34.355Z,1.58
2022-11-08T16:31:11.553Z,1.00
2022-11-08T16:33:38.542Z,1.00
2022-11-08T16:36:21.770Z,0.82
2022-11-08T16:38:53.506Z,0.90
2022-11-08T16:41:21.170Z,1.10
2022-11-08T16:43:47.997Z,0.98
2022-11-08T16:46:15.288Z,1.10
2022-11-08T16:48:48.048Z,1.15
2022-11-08T16:51:20.143Z,1.00
2022-11-08T16:53:47.982Z,0.90
2022-11-08T16:56:15.078Z,1.05
2022-11-08T16:58:42.530Z,0.82
2022-11-08T17:01:15.968Z,1.10
2022-11-08T17:03:42.851Z,1.38
2022-11-08T17:06:15.703Z,1.10
2022-11-08T17:08:42.561Z,1.20
2022-11-08T17:11:15.036Z,1.10
2022-11-08T17:13:41.679Z,1.30
2022-11-08T17:16:11.757Z,1.27
2022-11-08T17:18:38.723Z,1.40
2022-11-08T17:21:44.225Z,1.25
2022-11-08T17:24:01.914Z,1.10
2022-11-08T17:26:28.559Z,1.50
2022-11-08T17:28:56.317Z,1.20
2022-11-08T17:31:22.930Z,1.00
2022-11-08T17:33:49.663Z,1.30
2022-11-08T17:36:16.428Z,1.10
2022-11-08T17:38:43.240Z,1.95
2022-11-08T17:41:14.908Z,0.95
2022-11-08T17:43:43.123Z,1.63
2022-11-08T17:46:11.121Z,1.00
2022-11-08T17:48:38.649Z,1.20
2022-11-08T17:51:05.544Z,1.10
2022-11-08T17:53:34.104Z,1.33
2022-11-08T17:56:04.270Z,1.23
2022-11-08T17:58:33.782Z,1.45
2022-11-08T18:01:03.179Z,1.38
2022-11-08T18:03:30.017Z,1.30
2022-11-08T18:06:00.842Z,1.23
2022-11-08T18:08:30.156Z,1.67
2022-11-08T18:10:57.285Z,1.20
2022-11-08T18:13:25.702Z,1.10
2022-11-08T18:15:52.535Z,1.15
2022-11-08T18:18:19.774Z,1.42
2022-11-08T18:20:53.589Z,1.20
2022-11-08T18:23:20.904Z,1.35
2022-11-08T18:25:49.490Z,1.10
2022-11-08T18:28:17.127Z,1.30
2022-11-08T18:30:47.662Z,1.30
2022-11-08T18:33:15.534Z,1.15
2022-11-08T18:35:43.554Z,1.63
2022-11-08T18:38:11.966Z,1.65
2022-11-08T18:40:39.018Z,1.70
2022-11-08T18:43:06.960Z,1.45
2022-11-08T18:45:33.603Z,1.90
2022-11-08T18:48:00.290Z,1.70
2022-11-08T18:50:27.003Z,1.30
2022-11-08T18:53:07.120Z,1.52
2022-11-08T18:55:34.292Z,1.23
2022-11-08T18:58:01.526Z,1.48
2022-11-08T19:00:28.164Z,1.30
2022-11-08T19:02:55.022Z,1.63
2022-11-08T19:05:21.684Z,1.52
2022-11-08T19:07:48.286Z,1.40
2022-11-08T19:10:15.029Z,1.60
2022-11-08T19:12:41.602Z,1.30
2022-11-08T19:15:08.857Z,1.40
2022-11-08T19:17:36.342Z,1.67
2022-11-08T19:20:04.195Z,1.25
2022-11-08T19:22:30.865Z,1.50
2022-11-08T19:24:57.515Z,1.35
2022-11-08T19:27:24.211Z,1.25
2022-11-08T19:29:50.947Z,1.83
2022-11-08T19:32:17.668Z,1.55
2022-11-08T19:34:46.927Z,1.40
2022-11-08T19:37:13.647Z,1.20
2022-11-08T19:39:40.418Z,1.55
2022-11-08T19:42:07.192Z,1.40
2022-11-08T19:44:33.901Z,1.40
2022-11-08T19:47:00.730Z,1.25
2022-11-08T19:49:28.696Z,1.48
2022-11-08T19:51:55.488Z,1.27
2022-11-08T19:54:22.266Z,1.35
2022-11-08T19:57:05.926Z,1.60
2022-11-08T19:59:33.242Z,1.48
2022-11-08T20:02:00.190Z,1.45
2022-11-08T20:04:27.096Z,1.77
2022-11-08T20:06:53.977Z,1.25
2022-11-08T20:09:21.332Z,1.50
2022-11-08T20:11:50.278Z,1.55
2022-11-08T20:14:17.049Z,2.05
2022-11-08T20:16:47.847Z,1.42
2022-11-08T20:19:17.936Z,1.40
2022-11-08T20:21:46.198Z,1.15
2022-11-08T20:24:13.765Z,1.60
2022-11-08T20:26:41.747Z,0.90
2022-11-08T20:29:08.544Z,1.45
2022-11-08T20:31:35.827Z,1.10
2022-11-08T20:34:06.046Z,1.40
2022-11-08T20:36:35.264Z,1.70
2022-11-08T20:39:07.057Z,1.42
2022-11-08T20:41:36.840Z,1.60
2022-11-08T20:44:03.676Z,1.30
2022-11-08T20:46:32.285Z,1.27
2022-11-08T20:49:00.893Z,1.50
2022-11-08T20:51:30.017Z,1.50
2022-11-08T20:53:58.109Z,1.35
2022-11-08T20:56:25.401Z,1.38
2022-11-08T20:58:52.586Z,1.45
2022-11-08T21:01:24.898Z,1.40
2022-11-08T21:03:52.350Z,1.30
2022-11-08T21:06:22.541Z,1.88
2022-11-08T21:09:00.028Z,1.30
2022-11-08T21:11:30.083Z,1.30
2022-11-08T21:13:56.779Z,1.42
2022-11-08T21:16:38.213Z,1.27
2022-11-08T21:19:09.998Z,1.38
2022-11-08T21:21:37.245Z,1.55
2022-11-08T21:24:04.088Z,1.50
2022-11-08T21:26:36.232Z,1.38
2022-11-08T21:29:04.361Z,1.13
2022-11-08T21:31:31.217Z,1.10
2022-11-08T21:33:58.061Z,1.17
2022-11-08T21:36:26.836Z,1.40
2022-11-08T21:38:56.528Z,1.38
2022-11-08T21:41:23.184Z,1.20
2022-11-08T21:43:49.872Z,1.40
2022-11-08T21:46:18.105Z,1.25
2022-11-08T21:48:45.135Z,1.20
2022-11-08T21:51:12.197Z,1.55
2022-11-08T21:53:49.274Z,1.33
2022-11-08T21:56:20.623Z,1.30
2022-11-08T21:58:47.274Z,1.30
2022-11-08T22:01:14.021Z,1.20
2022-11-08T22:03:40.747Z,1.50
2022-11-08T22:06:07.847Z,1.10
2022-11-08T22:08:34.476Z,1.17
2022-11-08T22:11:01.175Z,1.35
2022-11-08T22:13:27.968Z,1.10
2022-11-08T22:15:54.820Z,1.38
2022-11-08T22:18:31.043Z,1.20
2022-11-08T22:21:26.876Z,1.23
2022-11-08T22:23:53.533Z,1.00
2022-11-08T22:26:20.398Z,1.17
2022-11-08T22:28:47.252Z,0.98
2022-11-08T22:31:14.128Z,1.25
2022-11-08T22:33:40.798Z,1.10
2022-11-08T22:36:07.745Z,1.15
2022-11-08T22:38:34.359Z,1.13
2022-11-08T22:41:01.006Z,1.15
2022-11-08T22:43:27.656Z,1.10
2022-11-08T22:45:54.293Z,1.17
2022-11-08T22:48:22.671Z,0.88
2022-11-08T22:50:49.434Z,1.10
2022-11-08T22:53:16.387Z,1.10
2022-11-08T22:55:45.081Z,1.08
2022-11-08T22:58:12.510Z,1.38
2022-11-08T23:00:39.206Z,1.00
2022-11-08T23:03:05.924Z,0.85
2022-11-08T23:05:32.610Z,1.17
2022-11-08T23:07:59.278Z,1.15
2022-11-08T23:10:25.997Z,1.23
2022-11-08T23:13:11.490Z,1.30
2022-11-08T23:15:56.968Z,1.20
2022-11-08T23:18:24.748Z,1.70
2022-11-08T23:21:13.583Z,0.95
2022-11-08T23:23:58.939Z,1.02
2022-11-08T23:26:44.318Z,1.27
2022-11-08T23:29:30.271Z,1.20
2022-11-08T23:31:57.114Z,1.55
2022-11-08T23:34:23.751Z,1.20
2022-11-08T23:36:50.389Z,1.10
2022-11-08T23:39:17.018Z,1.30
2022-11-08T23:42:02.474Z,1.05
2022-11-08T23:44:29.144Z,1.20
2022-11-08T23:46:58.546Z,1.40
2022-11-08T23:49:25.651Z,1.20
2022-11-08T23:51:52.740Z,1.33
2022-11-08T23:54:19.372Z,1.30
2022-11-08T23:56:46.607Z,1.60
2022-11-08T23:59:18.857Z,1.38
